Galveston, TX (77550)

1:18 PM CST on December 09, 2016 (GMT -0600)
Galveston.com | | Change Station

Elev 36 ft 29.31 °N, 94.79 °W | Updated 6 seconds ago

Clear
Clear
48.1 °F
Feels Like 48 °F
N
1.9
Wind Variable Wind from SSE
Gusts 8.0 mph

Today
High -- | Low -- °F
--% Chance of Precip.
Yesterday
High -- | Low -- °F
Precip. -- in
Pressure 30.53 in
Visibility 10.0 miles
Clouds Clear
Windchill 48 °F
Dew Point 31 °F
Humidity 49%
Rainfall 0.00 in
Snow Depth Not available.
7:02 AM 5:21 PM
Waxing Gibbous, 76% visible
METAR KGLS 091852Z 01013KT 10SM CLR 10/M01 A3053 RMK AO2 SLP337 T01001006
Pressure 30.53 in
Visibility 10.0 miles
Clouds Clear
Windchill 48 °F
Dew Point 31 °F
Humidity 49%
Rainfall 0.00 in
Snow Depth Not available.
7:02 AM 5:21 PM
Waxing Gibbous, 76% visible
METAR KGLS 091852Z 01013KT 10SM CLR 10/M01 A3053 RMK AO2 SLP337 T01001006

10-Day Weather Forecast

Almanac

Astronomy

Dec. 09, 2016 Rise Set
Actual Time
Civil Twilight
Nautical Twilight
Astronomical Twilight
Moon
Length of Visible Light
Length of Day
Tomorrow will be .
, % of the Moon is Illuminated

Today's Extremes

State Highs State Lows

Community

WunderPhotos

Upload Photos

1,956,499 photos uploaded!

WunderBlog® & News

Nearby

Air Quality

  Air Quality AQ Index Pollutant
Not available.

Snow Depth

Station Depth Elevation

Earthquake Activity

City Distance Mag. Time & Date
Minimum magnitude displayed is 2.5.

Coastal Water Temperatures

Place Temperature

Stations

Nearby Weather Stations

Station Location Temp. Windchill Dew Point Humidity Wind Precip. Elev Updated Type
                   

Watches & Warnings

There are currently no watches in effect.